Time;durP1;ratioP1;P1;durP2;ratioP2;P2;SDS_P1;SDS_P2;PMS_P1;PMS_P2;Temp;Humidity;BMP_temperature;BMP_pressure;BME280_temperature;BME280_humidity;BME280_pressure;Samples;Min_cycle;Max_cycle;Signal;HPM_P1;HPM_P2
2022/01/06 00:01:23;;;;;;;4.38;1.50;;;;;;;15.04;57.67;95520.75;5093260;28;20016;-32
2022/01/06 00:03:49;;;;;;;4.60;1.45;;;;;;;15.02;57.72;95531.38;5094091;28;20073;-32
2022/01/06 00:06:14;;;;;;;4.55;1.38;;;;;;;14.84;58.19;95536.31;5094073;28;20518;-33
2022/01/06 00:08:40;;;;;;;3.22;1.17;;;;;;;14.84;57.86;95567.09;5094075;28;20359;-32
2022/01/06 00:11:08;;;;;;;6.10;1.52;;;;;;;14.76;58.13;95546.16;5093826;28;20024;-31
2022/01/06 00:13:46;;;;;;;5.03;1.40;;;;;;;14.85;57.82;95540.56;5093970;28;20028;-33
2022/01/06 00:16:25;;;;;;;5.95;1.70;;;;;;;14.65;58.34;95558.41;5094207;28;20024;-31
2022/01/06 00:24:21;;;;;;;8.90;2.00;;;;;;;14.70;57.88;95552.28;5093792;28;20406;-32
2022/01/06 00:26:50;;;;;;;10.45;2.40;;;;;;;14.58;57.86;95556.09;5093952;28;20028;-32
2022/01/06 00:29:17;;;;;;;11.75;2.40;;;;;;;14.55;58.03;95557.03;5093959;28;20031;-33
2022/01/06 00:31:42;;;;;;;12.52;2.72;;;;;;;14.59;57.82;95565.75;5093440;28;20056;-31
2022/01/06 00:34:10;;;;;;;10.75;2.70;;;;;;;14.53;57.82;95570.38;5093761;28;20059;-31
2022/01/06 00:36:40;;;;;;;10.32;2.50;;;;;;;14.49;57.76;95572.53;5092301;28;20031;-31
2022/01/06 00:39:07;;;;;;;11.82;2.30;;;;;;;14.61;57.21;95570.75;5093519;28;20069;-32
2022/01/06 00:41:36;;;;;;;14.65;2.53;;;;;;;14.60;57.21;95572.72;5093540;28;20035;-31
2022/01/06 00:44:03;;;;;;;13.57;3.10;;;;;;;14.67;56.95;95569.63;5092371;28;20103;-32
2022/01/06 00:46:28;;;;;;;15.05;2.90;;;;;;;14.64;56.94;95565.09;5093366;28;20024;-32
2022/01/06 00:48:54;;;;;;;14.15;3.33;;;;;;;14.64;57.36;95577.97;5093510;28;20020;-31
2022/01/06 00:51:19;;;;;;;12.32;3.10;;;;;;;14.61;56.73;95571.50;5093337;28;20494;-32
2022/01/06 00:53:45;;;;;;;13.85;3.08;;;;;;;14.74;56.51;95571.19;5093138;28;20447;-33
2022/01/06 00:56:10;;;;;;;14.75;3.60;;;;;;;14.77;56.66;95574.94;5093348;28;20032;-31
2022/01/06 00:58:36;;;;;;;16.70;2.90;;;;;;;14.85;56.45;95579.53;5093373;28;20032;-31
2022/01/06 01:01:01;;;;;;;20.00;3.45;;;;;;;14.77;56.23;95591.31;5093321;28;20125;-32
2022/01/06 01:03:27;;;;;;;15.48;3.72;;;;;;;14.58;56.75;95585.34;5093408;28;20454;-31
2022/01/06 01:05:55;;;;;;;11.30;3.25;;;;;;;14.81;56.24;95595.38;5093410;28;20024;-31
2022/01/06 01:08:22;;;;;;;13.77;3.13;;;;;;;14.90;56.01;95605.41;5091847;28;20035;-31
2022/01/06 01:10:48;;;;;;;16.00;4.07;;;;;;;14.88;56.01;95588.75;5093419;28;20016;-31
2022/01/06 01:13:15;;;;;;;16.13;4.05;;;;;;;14.76;56.22;95600.75;5093340;28;20077;-31
2022/01/06 01:15:47;;;;;;;13.50;3.33;;;;;;;14.76;56.25;95601.50;5093383;28;20020;-32
2022/01/06 01:18:17;;;;;;;14.02;3.20;;;;;;;14.76;56.05;95600.75;5093104;28;20420;-31
2022/01/06 01:20:43;;;;;;;17.45;3.40;;;;;;;14.82;55.89;95607.81;5093460;28;20512;-31
2022/01/06 01:23:08;;;;;;;16.33;2.92;;;;;;;14.68;56.13;95598.41;5093132;28;20028;-31
2022/01/06 01:25:34;;;;;;;17.67;3.90;;;;;;;14.74;55.96;95599.22;5093079;28;20027;-32
2022/01/06 01:27:59;;;;;;;17.38;3.92;;;;;;;14.57;56.17;95606.41;5094438;28;20024;-31
2022/01/06 01:30:38;;;;;;;19.40;4.35;;;;;;;14.70;55.94;95598.69;5097259;28;20099;-32
2022/01/06 01:33:05;;;;;;;12.75;3.45;;;;;;;14.79;55.56;95600.56;5097201;28;20500;-31
2022/01/06 01:35:32;;;;;;;17.65;4.68;;;;;;;14.76;55.56;95603.47;5096831;28;20035;-31
2022/01/06 01:37:59;;;;;;;14.77;3.45;;;;;;;14.68;55.67;95586.75;5097293;28;20020;-31
2022/01/06 01:40:24;;;;;;;13.95;3.17;;;;;;;14.76;55.45;95600.75;5096971;28;20466;-31
2022/01/06 01:42:50;;;;;;;16.85;4.20;;;;;;;14.62;55.82;95597.56;5096958;28;20132;-31
2022/01/06 01:45:17;;;;;;;19.95;4.38;;;;;;;14.61;55.57;95606.97;5095535;28;20089;-31
2022/01/06 01:47:45;;;;;;;17.25;3.65;;;;;;;14.65;55.48;95601.31;5097178;28;20016;-31
2022/01/06 01:50:16;;;;;;;15.23;3.45;;;;;;;14.77;55.11;95610.44;5096773;28;20058;-31
2022/01/06 01:52:52;;;;;;;12.05;2.85;;;;;;;14.86;55.08;95613.03;5096607;28;20494;-31
2022/01/06 01:55:26;;;;;;;11.60;3.10;;;;;;;14.95;54.58;95624.63;5096603;28;20371;-31
2022/01/06 01:57:52;;;;;;;15.00;3.35;;;;;;;14.82;54.97;95620.69;5095319;28;20382;-31
2022/01/06 02:00:20;;;;;;;22.80;3.42;;;;;;;14.79;54.96;95619.66;5094501;28;20031;-32
2022/01/06 02:02:46;;;;;;;14.73;3.15;;;;;;;14.82;54.84;95621.44;5095800;28;20086;-31
2022/01/06 02:05:11;;;;;;;14.88;3.22;;;;;;;14.82;54.93;95610.53;5096735;28;20024;-31
2022/01/06 02:07:41;;;;;;;11.25;3.10;;;;;;;14.69;54.53;95619.03;5096311;28;20027;-31
2022/01/06 02:10:09;;;;;;;22.33;3.38;;;;;;;14.66;54.85;95619.97;5096342;28;20021;-31
2022/01/06 02:12:37;;;;;;;14.30;2.75;;;;;;;14.55;54.42;95614.31;5096484;28;20016;-31
2022/01/06 02:15:09;;;;;;;18.55;3.67;;;;;;;14.62;54.31;95633.03;5096396;28;20073;-31
2022/01/06 02:17:36;;;;;;;14.05;3.05;;;;;;;14.69;54.39;95631.91;5096291;28;20121;-33
2022/01/06 02:20:10;;;;;;;15.00;3.22;;;;;;;14.56;54.20;95636.91;5096187;28;20496;-31
2022/01/06 02:22:37;;;;;;;15.00;2.97;;;;;;;14.40;54.17;95634.63;5096177;28;20073;-31
2022/01/06 02:25:11;;;;;;;19.95;3.08;;;;;;;14.34;53.98;95642.72;5096112;28;20024;-31
2022/01/06 02:27:36;;;;;;;15.13;2.95;;;;;;;14.50;53.70;95644.97;5096149;28;20374;-31
2022/01/06 02:30:02;;;;;;;15.57;2.72;;;;;;;14.58;53.00;95646.13;5096026;28;20028;-31
2022/01/06 02:32:28;;;;;;;15.82;3.38;;;;;;;14.64;52.95;95649.69;5094921;28;20031;-31
2022/01/06 02:34:53;;;;;;;19.50;3.03;;;;;;;14.61;53.95;95644.41;5096012;28;20035;-32
2022/01/06 02:37:19;;;;;;;19.48;3.17;;;;;;;14.45;53.83;95647.63;5095999;28;20031;-31
2022/01/06 02:39:44;;;;;;;19.65;3.65;;;;;;;14.46;53.47;95644.44;5094573;28;20020;-32
2022/01/06 02:42:11;;;;;;;17.30;4.25;;;;;;;14.61;52.90;95634.25;5096042;28;20019;-32
2022/01/06 02:44:38;;;;;;;13.43;2.55;;;;;;;14.59;52.79;95636.69;5096178;28;20024;-31
2022/01/06 02:47:05;;;;;;;11.63;2.60;;;;;;;14.58;53.49;95646.13;5095761;28;20027;-31
2022/01/06 02:49:31;;;;;;;10.40;2.25;;;;;;;14.51;53.04;95640.28;5095599;28;20036;-31
2022/01/06 02:51:56;;;;;;;11.98;3.40;;;;;;;14.58;52.92;95648.09;5095279;28;20509;-31
2022/01/06 02:54:22;;;;;;;13.73;2.38;;;;;;;14.53;52.50;95638.59;5095574;28;20471;-31
2022/01/06 02:56:48;;;;;;;11.77;2.38;;;;;;;14.59;52.75;95635.94;5095665;28;20147;-33
2022/01/06 02:59:15;;;;;;;15.30;2.83;;;;;;;14.59;52.16;95631.22;5095437;28;20023;-31
2022/01/06 03:01:43;;;;;;;16.20;3.45;;;;;;;14.75;51.70;95632.72;5095352;28;20035;-31
2022/01/06 03:04:10;;;;;;;11.20;2.50;;;;;;;14.73;51.94;95638.66;5095585;28;20036;-31
2022/01/06 03:06:36;;;;;;;9.57;2.30;;;;;;;14.77;51.86;95635.75;5095227;28;20414;-31
2022/01/06 03:09:02;;;;;;;12.68;2.45;;;;;;;14.72;51.94;95636.41;5095254;28;20425;-31
2022/01/06 03:11:28;;;;;;;13.98;2.20;;;;;;;14.74;51.85;95637.44;5095334;28;20028;-32
2022/01/06 03:13:54;;;;;;;12.88;2.53;;;;;;;14.60;52.24;95643.66;5095134;28;20024;-31
2022/01/06 03:16:20;;;;;;;13.00;3.13;;;;;;;14.71;51.57;95646.56;5095243;28;20032;-32
2022/01/06 03:18:46;;;;;;;12.05;3.15;;;;;;;14.72;51.82;95642.63;5094964;28;20024;-31
2022/01/06 03:21:11;;;;;;;10.48;2.45;;;;;;;14.74;51.33;95637.44;5095148;28;20031;-31
2022/01/06 03:23:38;;;;;;;10.60;2.30;;;;;;;14.63;51.79;95653.63;5095097;28;20024;-31
2022/01/06 03:26:03;;;;;;;13.10;2.72;;;;;;;14.65;51.23;95653.94;5094864;28;20031;-32
2022/01/06 03:28:29;;;;;;;12.73;2.50;;;;;;;14.57;50.88;95652.81;5094917;28;20398;-31
2022/01/06 03:30:54;;;;;;;13.07;2.25;;;;;;;14.57;51.01;95655.53;5094879;28;20107;-31
2022/01/06 03:33:19;;;;;;;13.50;2.45;;;;;;;14.60;51.15;95651.09;5094693;28;20032;-31
2022/01/06 03:35:45;;;;;;;10.88;2.63;;;;;;;14.67;50.92;95670.59;5095083;28;20019;-31
2022/01/06 03:38:11;;;;;;;9.73;1.88;;;;;;;14.60;51.10;95659.28;5094799;28;20165;-31
2022/01/06 03:40:37;;;;;;;12.35;2.22;;;;;;;14.66;50.50;95660.13;5093421;28;20027;-31
2022/01/06 03:43:02;;;;;;;11.25;2.67;;;;;;;14.70;50.91;95658.72;5094630;28;20394;-31
2022/01/06 03:45:28;;;;;;;10.70;2.10;;;;;;;14.68;50.89;95666.63;5094751;28;20129;-32
2022/01/06 03:47:55;;;;;;;12.77;3.05;;;;;;;14.58;50.51;95662.50;5094419;28;20073;-31
2022/01/06 03:50:20;;;;;;;12.60;2.75;;;;;;;14.58;50.31;95662.50;5094058;28;20099;-31
2022/01/06 03:52:46;;;;;;;8.88;1.92;;;;;;;14.57;50.18;95661.00;5094193;28;20127;-31
2022/01/06 03:55:16;;;;;;;12.00;2.20;;;;;;;14.49;51.10;95662.56;5094424;28;20061;-31
2022/01/06 03:57:41;;;;;;;12.20;2.28;;;;;;;14.58;50.76;95664.47;5094428;28;20032;-31
2022/01/06 04:00:10;;;;;;;12.40;2.63;;;;;;;14.69;50.48;95662.69;5094225;28;20034;-31
2022/01/06 04:02:35;;;;;;;12.98;1.90;;;;;;;14.63;50.21;95659.09;5094216;28;20099;-31
2022/01/06 04:05:02;;;;;;;9.25;2.30;;;;;;;14.59;50.14;95658.53;5094092;28;20442;-31
2022/01/06 04:07:28;;;;;;;15.85;2.63;;;;;;;14.69;50.22;95668.13;5094122;28;20028;-32
2022/01/06 04:09:53;;;;;;;14.13;2.63;;;;;;;14.45;50.31;95670.22;5092637;28;20045;-31
2022/01/06 04:12:19;;;;;;;13.40;3.38;;;;;;;14.51;50.09;95667.56;5094049;28;20027;-31
2022/01/06 04:14:45;;;;;;;12.60;2.60;;;;;;;14.62;50.24;95673.97;5093990;28;20031;-33
2022/01/06 04:17:10;;;;;;;9.90;2.58;;;;;;;14.61;50.22;95683.38;5094116;28;20055;-31
2022/01/06 04:19:36;;;;;;;14.02;2.67;;;;;;;14.50;50.52;95675.00;5093952;28;20024;-31
2022/01/06 04:22:05;;;;;;;11.52;2.40;;;;;;;14.62;49.96;95679.41;5093929;28;20432;-31
2022/01/06 04:24:31;;;;;;;11.10;2.25;;;;;;;14.68;50.40;95685.75;5093948;28;20031;-31
2022/01/06 04:26:57;;;;;;;11.05;2.28;;;;;;;14.56;50.21;95677.84;5092636;28;20487;-31
2022/01/06 04:29:22;;;;;;;10.60;2.40;;;;;;;14.71;50.23;95687.50;5093782;28;20095;-32
2022/01/06 04:31:48;;;;;;;14.70;2.45;;;;;;;14.72;50.33;95691.00;5093681;28;20024;-32
2022/01/06 04:34:13;;;;;;;11.40;2.80;;;;;;;14.84;50.17;95691.91;5093740;28;20379;-31
2022/01/06 04:36:45;;;;;;;11.77;2.40;;;;;;;14.88;50.07;95690.53;5093548;28;20058;-31
2022/01/06 04:39:11;;;;;;;13.07;2.37;;;;;;;14.89;50.32;95685.81;5094053;28;20084;-31
2022/01/06 04:41:36;;;;;;;10.57;2.63;;;;;;;14.89;50.13;95694.00;5093740;28;20024;-32
2022/01/06 04:44:02;;;;;;;7.55;2.30;;;;;;;14.89;50.43;95697.47;5092290;28;20024;-31
2022/01/06 04:46:27;;;;;;;12.32;2.50;;;;;;;14.90;50.38;95703.69;5093441;28;20465;-32
2022/01/06 04:48:52;;;;;;;10.35;2.40;;;;;;;14.88;50.33;95695.97;5093374;28;20097;-32
2022/01/06 04:51:18;;;;;;;9.63;1.98;;;;;;;14.85;50.31;95702.38;5093651;28;20532;-31
2022/01/06 04:53:43;;;;;;;10.95;2.63;;;;;;;14.65;50.99;95702.28;5093277;28;20044;-33
2022/01/06 04:56:09;;;;;;;9.02;2.63;;;;;;;14.69;50.51;95705.59;5093321;28;20466;-32
2022/01/06 04:58:35;;;;;;;13.05;2.95;;;;;;;14.49;50.49;95708.97;5093168;28;20024;-31
2022/01/06 05:01:01;;;;;;;10.93;2.38;;;;;;;14.59;49.86;95709.63;5093546;28;20424;-31
2022/01/06 05:03:26;;;;;;;13.00;2.83;;;;;;;14.58;50.06;95711.63;5092654;28;20032;-32
2022/01/06 05:05:52;;;;;;;8.85;1.83;;;;;;;14.46;50.44;95711.88;5093219;28;20106;-31
2022/01/06 05:08:17;;;;;;;11.98;2.53;;;;;;;14.37;50.01;95707.97;5093180;28;20028;-31
2022/01/06 05:10:43;;;;;;;8.65;2.20;;;;;;;14.27;50.56;95714.72;5093101;28;20031;-32
2022/01/06 05:13:08;;;;;;;12.30;2.47;;;;;;;14.36;49.71;95714.66;5093143;28;20020;-31
2022/01/06 05:15:34;;;;;;;11.73;2.53;;;;;;;14.43;50.10;95707.38;5093143;28;20028;-31
2022/01/06 05:17:59;;;;;;;8.60;2.10;;;;;;;14.45;50.02;95707.66;5093108;28;20035;-31
2022/01/06 05:20:26;;;;;;;10.00;2.22;;;;;;;14.52;50.12;95712.72;5093041;28;20093;-31
2022/01/06 05:22:55;;;;;;;8.45;1.85;;;;;;;14.42;49.78;95703.13;5091925;28;20024;-31
2022/01/06 05:25:25;;;;;;;13.45;2.65;;;;;;;14.61;49.70;95713.38;5093004;28;20027;-31
2022/01/06 05:27:51;;;;;;;11.45;2.17;;;;;;;14.50;49.89;95715.91;5093340;28;20028;-31
2022/01/06 05:30:17;;;;;;;10.05;1.98;;;;;;;14.53;49.58;95723.19;5093132;28;20056;-32
2022/01/06 05:32:42;;;;;;;12.48;2.33;;;;;;;14.56;49.77;95719.50;5092911;28;20052;-31
2022/01/06 05:35:08;;;;;;;8.18;2.20;;;;;;;14.55;50.03;95726.19;5092965;28;20032;-31
2022/01/06 05:37:34;;;;;;;8.88;2.28;;;;;;;14.58;49.82;95733.44;5093038;28;20386;-31
2022/01/06 05:39:59;;;;;;;11.65;2.13;;;;;;;14.44;49.83;95753.28;5092853;28;20029;-33
2022/01/06 05:42:24;;;;;;;12.65;2.20;;;;;;;14.51;49.85;95754.88;5092812;28;20024;-31
2022/01/06 05:44:50;;;;;;;5.65;1.52;;;;;;;14.58;49.91;95758.00;5092869;28;20027;-31
2022/01/06 05:47:15;;;;;;;13.02;2.40;;;;;;;14.43;50.10;95754.50;5092917;28;20023;-31
2022/01/06 05:49:41;;;;;;;14.77;2.53;;;;;;;14.43;49.85;95762.69;5093195;28;20458;-31
2022/01/06 05:52:07;;;;;;;10.32;2.20;;;;;;;14.39;50.03;95762.06;5092650;28;20135;-31
2022/01/06 05:54:32;;;;;;;10.68;3.03;;;;;;;14.28;49.96;95770.03;5092810;28;20024;-31
2022/01/06 05:56:58;;;;;;;9.50;1.90;;;;;;;14.28;49.60;95770.03;5091746;28;20020;-31
2022/01/06 05:59:24;;;;;;;7.05;1.80;;;;;;;14.38;49.77;95768.75;5092953;28;20024;-31
2022/01/06 06:01:49;;;;;;;10.23;2.47;;;;;;;14.46;49.83;95780.09;5092801;28;20410;-31
2022/01/06 06:04:15;;;;;;;10.75;2.03;;;;;;;14.63;50.10;95770.22;5093147;28;20024;-31
2022/01/06 06:06:40;;;;;;;6.30;1.73;;;;;;;14.64;49.53;95775.22;5092755;28;20052;-31
2022/01/06 06:09:06;;;;;;;9.93;1.80;;;;;;;14.63;49.81;95767.50;5092678;28;20024;-32
2022/01/06 06:11:32;;;;;;;8.82;2.15;;;;;;;14.67;49.82;95777.03;5092434;28;20046;-31
2022/01/06 06:13:57;;;;;;;11.00;3.70;;;;;;;14.64;49.67;95775.22;5093824;28;20036;-31
2022/01/06 06:16:24;;;;;;;8.93;2.05;;;;;;;14.77;49.78;95776.94;5096128;28;20024;-32
2022/01/06 06:18:50;;;;;;;11.00;2.90;;;;;;;14.62;50.24;95791.31;5096538;28;20032;-31
2022/01/06 06:21:17;;;;;;;8.73;1.73;;;;;;;14.60;50.25;95790.25;5096076;28;20016;-31
2022/01/06 06:23:42;;;;;;;9.65;2.33;;;;;;;14.55;50.22;95788.19;5096228;28;20144;-31
2022/01/06 06:26:08;;;;;;;12.18;2.15;;;;;;;14.48;50.15;95788.53;5096221;28;20031;-31
2022/01/06 06:28:34;;;;;;;7.93;1.92;;;;;;;14.64;49.78;95791.59;5096104;28;20464;-31
2022/01/06 06:30:59;;;;;;;8.18;1.90;;;;;;;14.67;50.03;95785.22;5096201;28;20028;-31
2022/01/06 06:33:25;;;;;;;7.70;2.10;;;;;;;14.74;49.56;95790.28;5095953;28;20039;-31
2022/01/06 06:35:50;;;;;;;10.43;2.17;;;;;;;14.72;49.90;95787.28;5095869;28;20106;-32
2022/01/06 06:38:16;;;;;;;6.85;2.20;;;;;;;14.71;50.13;95791.22;5096245;28;20024;-31
2022/01/06 06:40:41;;;;;;;7.43;2.10;;;;;;;14.72;49.96;95790.00;5095821;28;20028;-31
2022/01/06 06:43:13;;;;;;;5.45;1.67;;;;;;;14.74;50.07;95795.75;5095798;28;20024;-32
2022/01/06 06:45:40;;;;;;;6.53;1.73;;;;;;;14.76;50.04;95802.72;5096041;28;20055;-31
2022/01/06 06:48:06;;;;;;;8.63;1.92;;;;;;;14.69;50.29;95801.88;5095913;28;20269;-31
2022/01/06 06:50:31;;;;;;;9.65;2.30;;;;;;;14.64;50.07;95807.97;5095730;28;20043;-31
2022/01/06 06:52:57;;;;;;;5.90;1.88;;;;;;;14.70;50.27;95799.91;5095396;28;20490;-31
2022/01/06 06:55:22;;;;;;;8.40;1.80;;;;;;;14.61;50.59;95799.94;5095527;28;20401;-31
2022/01/06 06:57:48;;;;;;;7.18;2.58;;;;;;;14.77;50.05;95806.94;5095387;28;20111;-31
2022/01/06 07:00:14;;;;;;;11.43;2.38;;;;;;;14.72;50.50;95802.88;5095573;28;20027;-32
2022/01/06 07:02:39;;;;;;;7.22;1.88;;;;;;;14.69;50.33;95804.59;5095447;28;20027;-31
2022/01/06 07:05:06;;;;;;;11.65;2.45;;;;;;;14.67;50.42;95801.59;5095457;28;20020;-32
2022/01/06 07:07:31;;;;;;;6.38;2.25;;;;;;;14.70;50.37;95800.66;5095348;28;20063;-32
2022/01/06 07:09:57;;;;;;;6.20;1.75;;;;;;;14.68;50.45;95815.97;5095119;28;20055;-31
2022/01/06 07:12:22;;;;;;;10.05;2.00;;;;;;;14.73;50.49;95816.06;5095396;28;20374;-32
2022/01/06 07:14:48;;;;;;;8.07;1.98;;;;;;;14.69;50.51;95815.53;5095448;28;20118;-31
2022/01/06 07:17:14;;;;;;;11.00;1.90;;;;;;;14.70;50.72;95814.31;5095087;28;20023;-31
2022/01/06 07:19:40;;;;;;;9.48;2.20;;;;;;;14.74;50.62;95816.81;5095045;28;20482;-32
2022/01/06 07:22:05;;;;;;;10.07;2.30;;;;;;;14.64;50.45;95824.34;5094920;28;20073;-31
2022/01/06 07:24:31;;;;;;;10.15;2.22;;;;;;;14.67;50.69;95826.16;5094910;28;20085;-31
2022/01/06 07:26:57;;;;;;;10.57;2.30;;;;;;;14.76;50.40;95830.00;5092117;28;20462;-31
2022/01/06 07:29:23;;;;;;;9.18;1.90;;;;;;;14.69;50.62;95826.44;5092931;28;20031;-31
2022/01/06 07:31:48;;;;;;;6.68;1.80;;;;;;;14.64;50.90;95840.72;5092706;28;20535;-31
2022/01/06 07:34:14;;;;;;;10.57;1.90;;;;;;;14.73;50.60;95835.19;5092917;28;20137;-32
2022/01/06 07:36:40;;;;;;;5.57;1.90;;;;;;;14.64;50.88;95838.00;5091286;28;20030;-31
2022/01/06 07:39:05;;;;;;;10.77;2.83;;;;;;;14.62;50.59;95832.25;5092483;28;20158;-31
2022/01/06 07:41:31;;;;;;;6.97;1.65;;;;;;;14.64;50.82;95838.00;5092563;28;20076;-31
2022/01/06 07:43:57;;;;;;;7.72;2.08;;;;;;;14.60;50.73;95842.88;5092447;28;20112;-32
2022/01/06 07:46:22;;;;;;;7.85;2.38;;;;;;;14.68;50.54;95846.75;5092283;28;20034;-32
2022/01/06 07:48:57;;;;;;;6.05;2.00;;;;;;;14.56;50.85;95847.75;5092485;28;20545;-31
2022/01/06 07:51:24;;;;;;;9.93;1.90;;;;;;;14.59;50.89;95857.72;5091976;28;20509;-32
2022/01/06 07:53:50;;;;;;;7.32;1.85;;;;;;;14.45;51.12;95858.47;5092262;28;20733;-31
2022/01/06 07:56:16;;;;;;;5.38;1.55;;;;;;;14.57;50.74;95878.53;5092438;28;20028;-33
2022/01/06 07:58:42;;;;;;;8.40;2.03;;;;;;;14.56;50.90;95863.38;5092079;28;20035;-31
2022/01/06 08:01:09;;;;;;;7.88;1.90;;;;;;;14.63;50.85;95866.50;5092136;28;20020;-31
2022/01/06 08:03:35;;;;;;;10.00;2.13;;;;;;;14.60;50.89;95867.41;5091833;28;20425;-31
2022/01/06 08:06:00;;;;;;;7.63;2.10;;;;;;;14.65;50.48;95872.25;5092035;28;20055;-31
2022/01/06 08:08:25;;;;;;;6.93;1.92;;;;;;;14.59;50.59;95887.00;5092215;28;20453;-31
2022/01/06 08:10:51;;;;;;;7.32;2.05;;;;;;;14.64;50.62;95889.84;5092231;28;20035;-31
2022/01/06 08:13:17;;;;;;;8.93;1.77;;;;;;;14.65;50.59;95901.50;5092153;28;20036;-31
2022/01/06 08:15:42;;;;;;;10.57;2.03;;;;;;;14.66;50.70;95900.28;5091975;28;20122;-33
2022/01/06 08:18:07;;;;;;;6.35;1.83;;;;;;;14.58;50.57;95901.88;5092084;28;20024;-32
2022/01/06 08:20:35;;;;;;;8.68;1.95;;;;;;;14.30;51.12;95910.19;5089976;28;20040;-33
2022/01/06 08:23:01;;;;;;;7.85;2.10;;;;;;;14.48;51.02;95912.06;5091650;28;20035;-31
2022/01/06 08:25:28;;;;;;;10.35;2.53;;;;;;;14.36;51.13;95904.84;5091213;28;20020;-31
2022/01/06 08:27:53;;;;;;;10.57;2.25;;;;;;;14.57;50.57;95905.81;5091389;28;20031;-31
2022/01/06 08:30:18;;;;;;;9.38;2.30;;;;;;;14.61;50.71;95917.31;5091673;28;20024;-31
2022/01/06 08:32:44;;;;;;;9.75;2.85;;;;;;;14.49;50.60;95919.03;5091664;28;20145;-31
2022/01/06 08:35:10;;;;;;;8.32;1.98;;;;;;;14.50;50.77;95923.28;5091436;28;20024;-32
2022/01/06 08:37:35;;;;;;;7.55;2.00;;;;;;;14.61;50.62;95920.78;5090859;28;20024;-31
2022/01/06 08:40:02;;;;;;;9.68;2.10;;;;;;;14.49;50.68;95927.22;5091362;28;20032;-31
2022/01/06 08:42:28;;;;;;;7.82;1.75;;;;;;;14.59;50.31;95931.41;5091423;28;20043;-31
2022/01/06 08:44:53;;;;;;;8.98;2.08;;;;;;;14.54;50.62;95932.06;5091219;28;20032;-31
2022/01/06 08:47:19;;;;;;;10.35;2.40;;;;;;;14.63;50.42;95937.44;5091640;28;20112;-31
2022/01/06 08:49:44;;;;;;;8.85;2.08;;;;;;;14.58;50.74;95940.84;5089840;28;20501;-31
2022/01/06 08:52:10;;;;;;;11.23;2.42;;;;;;;14.60;50.64;95937.63;5091100;28;20040;-31
2022/01/06 08:54:36;;;;;;;9.60;2.22;;;;;;;14.47;51.06;95935.13;5091484;28;20097;-31
2022/01/06 08:57:01;;;;;;;9.85;2.33;;;;;;;14.57;50.88;95939.31;5091372;28;20031;-31
2022/01/06 08:59:27;;;;;;;13.82;2.47;;;;;;;14.56;50.63;95945.25;5091347;28;20059;-32
2022/01/06 09:01:53;;;;;;;7.78;1.92;;;;;;;14.67;50.54;95951.69;5091104;28;20024;-32
2022/01/06 09:04:20;;;;;;;9.05;1.92;;;;;;;14.59;50.71;95952.47;5091475;28;20040;-31
2022/01/06 09:06:47;;;;;;;7.65;2.15;;;;;;;14.55;50.73;95951.91;5091372;28;20060;-32
2022/01/06 09:09:13;;;;;;;7.68;2.38;;;;;;;14.59;50.83;95953.22;5091409;28;20042;-31
2022/01/06 09:11:38;;;;;;;10.95;2.30;;;;;;;14.59;50.69;95941.56;5091191;28;20525;-32
2022/01/06 09:14:04;;;;;;;10.35;2.30;;;;;;;14.47;51.09;95951.47;5089658;28;20089;-31
2022/01/06 09:16:29;;;;;;;9.57;2.40;;;;;;;14.60;50.67;95952.03;5091150;28;20104;-31
2022/01/06 09:18:55;;;;;;;9.07;2.00;;;;;;;14.60;50.77;95951.25;5091251;28;20028;-31
2022/01/06 09:21:22;;;;;;;7.00;1.92;;;;;;;14.62;50.68;95954.28;5089132;28;20032;-33
2022/01/06 09:23:50;;;;;;;8.90;2.45;;;;;;;14.60;51.01;95970.38;5091172;28;20024;-31
2022/01/06 09:26:16;;;;;;;6.30;1.83;;;;;;;14.65;50.56;95959.59;5089342;28;20028;-31
2022/01/06 09:28:41;;;;;;;9.77;3.03;;;;;;;14.44;51.15;95963.34;5091121;28;20024;-31
2022/01/06 09:31:07;;;;;;;9.15;2.33;;;;;;;14.56;50.73;95964.34;5091102;28;20081;-32
2022/01/06 09:33:32;;;;;;;9.18;2.10;;;;;;;14.59;50.77;95969.59;5091108;28;20028;-32
2022/01/06 09:35:58;;;;;;;7.95;2.30;;;;;;;14.54;50.82;95974.97;5091078;28;20064;-32
2022/01/06 09:38:23;;;;;;;8.02;2.47;;;;;;;14.69;50.58;95968.38;5090789;28;20024;-32
2022/01/06 09:40:49;;;;;;;6.95;1.83;;;;;;;14.63;50.85;95974.91;5090956;28;20027;-31
2022/01/06 09:43:14;;;;;;;8.88;2.30;;;;;;;14.47;50.97;95976.03;5090814;28;20031;-31
2022/01/06 09:45:42;;;;;;;5.90;2.85;;;;;;;14.54;51.02;95983.91;5090815;28;20070;-31
2022/01/06 09:48:08;;;;;;;8.15;2.10;;;;;;;14.54;50.96;95978.44;5089519;28;20034;-31
2022/01/06 09:50:36;;;;;;;10.52;1.90;;;;;;;14.60;50.88;95982.03;5094443;28;20023;-31
2022/01/06 09:53:02;;;;;;;9.57;2.08;;;;;;;14.49;51.21;95979.06;5093015;28;20405;-32
2022/01/06 09:55:28;;;;;;;7.35;2.38;;;;;;;14.52;51.32;95978.16;5094800;28;20050;-32
2022/01/06 09:57:59;;;;;;;8.98;2.40;;;;;;;14.50;51.25;95977.84;5094788;28;20024;-31
2022/01/06 10:00:27;;;;;;;9.15;2.60;;;;;;;14.51;51.07;95984.81;5094870;28;20075;-31
2022/01/06 10:03:01;;;;;;;4.95;2.03;;;;;;;14.55;51.19;95998.31;5092977;28;20489;-31
2022/01/06 10:05:40;;;;;;;12.23;3.33;;;;;;;14.51;51.43;96000.44;5094582;28;20024;-31
2022/01/06 10:08:08;;;;;;;10.55;2.67;;;;;;;14.37;51.53;96002.59;5094514;28;20107;-31
2022/01/06 10:10:34;;;;;;;7.30;2.35;;;;;;;14.40;51.48;95995.50;5094547;28;20031;-31
2022/01/06 10:13:06;;;;;;;6.85;2.38;;;;;;;14.51;51.13;95994.97;5094337;28;20032;-32
2022/01/06 10:15:33;;;;;;;10.93;3.70;;;;;;;14.41;51.46;95998.97;5094138;28;20028;-31
2022/01/06 10:18:09;;;;;;;9.23;2.25;;;;;;;14.56;51.01;95997.84;5094399;28;20039;-31
2022/01/06 10:20:35;;;;;;;7.88;1.83;;;;;;;14.51;51.20;95994.97;5092413;28;20077;-31
2022/01/06 10:23:00;;;;;;;7.47;2.17;;;;;;;14.50;51.48;96002.41;5094229;28;20028;-32
2022/01/06 10:25:31;;;;;;;9.23;2.60;;;;;;;14.56;51.37;95997.84;5094185;28;20114;-32
2022/01/06 10:27:56;;;;;;;9.98;2.80;;;;;;;14.40;51.60;96000.94;5092494;28;20115;-32
2022/01/06 10:30:26;;;;;;;11.35;3.17;;;;;;;14.34;51.73;96000.03;5094109;28;20433;-31
2022/01/06 10:32:57;;;;;;;9.70;2.60;;;;;;;14.55;51.41;95996.34;5093894;28;20030;-31
2022/01/06 10:35:22;;;;;;;9.38;2.90;;;;;;;14.45;51.39;96002.31;5094000;28;20028;-32
2022/01/06 10:37:52;;;;;;;9.88;2.72;;;;;;;14.55;51.11;96004.53;5093738;28;20024;-31
2022/01/06 10:40:23;;;;;;;8.80;2.88;;;;;;;14.43;51.49;96002.75;5092363;28;20032;-31
2022/01/06 10:42:52;;;;;;;12.13;3.30;;;;;;;14.58;51.48;96011.03;5093898;28;20389;-32
2022/01/06 10:45:25;;;;;;;9.73;3.08;;;;;;;14.46;51.41;96009.28;5093916;28;20027;-31
2022/01/06 10:47:53;;;;;;;10.18;2.47;;;;;;;14.51;51.34;96017.56;5093989;28;20036;-32
2022/01/06 10:50:28;;;;;;;10.73;2.75;;;;;;;14.50;51.63;96021.50;5093545;28;20074;-31
2022/01/06 10:53:00;;;;;;;10.68;3.22;;;;;;;14.46;51.65;96015.47;5093446;28;20131;-31
2022/01/06 10:55:34;;;;;;;12.85;3.40;;;;;;;14.56;51.32;96019.69;5093771;28;20036;-32
2022/01/06 10:58:02;;;;;;;11.45;3.40;;;;;;;14.52;51.60;96023.78;5093580;28;20032;-31
2022/01/06 11:00:32;;;;;;;10.18;3.00;;;;;;;14.63;51.42;96013.13;5090987;28;20454;-31
2022/01/06 11:03:19;;;;;;;10.18;3.85;;;;;;;14.61;51.42;96015.53;5093156;28;20489;-31
2022/01/06 11:05:53;;;;;;;11.40;2.85;;;;;;;14.61;51.35;96013.56;5093360;28;20028;-31
2022/01/06 11:08:30;;;;;;;11.60;3.42;;;;;;;14.59;51.36;96016.00;5093397;28;20458;-31
2022/01/06 11:13:36;;;;;;;9.63;3.42;;;;;;;14.59;51.45;96024.19;5096477;28;20164;-31
2022/01/06 11:16:02;;;;;;;12.18;4.07;;;;;;;14.58;51.55;96025.44;5113036;28;20066;-31
2022/01/06 11:18:29;;;;;;;8.77;3.42;;;;;;;14.58;51.80;96027.41;5113573;28;20103;-31
2022/01/06 11:21:09;;;;;;;10.77;3.75;;;;;;;14.51;51.79;96014.84;5107150;28;20111;-32
2022/01/06 11:23:34;;;;;;;9.23;3.60;;;;;;;14.57;51.66;96026.66;5092970;28;20024;-32
2022/01/06 11:26:06;;;;;;;10.93;3.90;;;;;;;14.52;51.86;96018.31;5092805;28;20505;-31
2022/01/06 11:28:32;;;;;;;11.00;3.33;;;;;;;14.32;52.49;96024.28;5092685;28;20566;-31
2022/01/06 11:31:21;;;;;;;8.88;3.10;;;;;;;14.40;52.19;96017.31;5092593;28;20147;-31
2022/01/06 11:33:49;;;;;;;9.48;3.00;;;;;;;14.36;52.17;96017.44;5099232;28;20031;-32
2022/01/06 11:36:20;;;;;;;10.30;3.30;;;;;;;14.59;51.65;96021.47;5113152;28;20084;-31